createdAt,value
2022-07-30T00:00:37.799Z,8.77
2022-07-30T00:03:06.389Z,8.77
2022-07-30T00:05:34.817Z,9.87
2022-07-30T00:08:03.301Z,9.40
2022-07-30T00:10:31.772Z,9.90
2022-07-30T00:13:00.197Z,10.00
2022-07-30T00:15:30.079Z,9.53
2022-07-30T00:17:58.500Z,9.77
2022-07-30T00:20:28.622Z,9.33
2022-07-30T00:22:57.618Z,9.90
2022-07-30T00:25:26.027Z,10.73
2022-07-30T00:27:54.448Z,9.40
2022-07-30T00:30:23.451Z,9.20
2022-07-30T00:32:53.386Z,9.10
2022-07-30T00:35:21.842Z,10.00
2022-07-30T00:37:50.208Z,8.53
2022-07-30T00:40:18.706Z,9.60
2022-07-30T00:42:49.681Z,9.87
2022-07-30T00:45:19.614Z,9.57
2022-07-30T00:47:48.039Z,9.97
2022-07-30T00:50:17.909Z,10.00
2022-07-30T00:52:47.312Z,9.87
2022-07-30T00:55:17.281Z,9.30
2022-07-30T00:57:46.312Z,9.43
2022-07-30T01:00:18.551Z,9.60
2022-07-30T01:02:47.063Z,9.47
2022-07-30T01:05:16.950Z,9.30
2022-07-30T01:07:45.733Z,8.00
2022-07-30T01:10:16.836Z,8.40
2022-07-30T01:12:46.768Z,8.40
2022-07-30T01:15:16.305Z,8.50
2022-07-30T01:17:45.901Z,8.77
2022-07-30T01:20:29.599Z,9.20
2022-07-30T01:23:09.278Z,8.60
2022-07-30T01:25:56.076Z,9.70
2022-07-30T01:28:31.304Z,9.13
2022-07-30T01:31:01.604Z,8.57
2022-07-30T01:33:32.581Z,8.47
2022-07-30T01:36:03.562Z,9.63
2022-07-30T01:38:35.106Z,9.63
2022-07-30T01:41:07.039Z,9.20
2022-07-30T01:43:37.885Z,8.63
2022-07-30T01:46:09.066Z,8.90
2022-07-30T01:48:42.108Z,8.57
2022-07-30T01:51:14.792Z,8.80
2022-07-30T01:53:50.157Z,8.43
2022-07-30T01:56:25.096Z,9.10
2022-07-30T01:58:56.830Z,8.50
2022-07-30T02:01:27.786Z,8.90
2022-07-30T02:04:03.575Z,8.97
2022-07-30T02:06:37.162Z,9.10
2022-07-30T02:09:11.265Z,9.07
2022-07-30T02:12:03.789Z,9.67
2022-07-30T02:14:40.336Z,9.40
2022-07-30T02:17:19.093Z,9.00
2022-07-30T02:19:55.279Z,10.40
2022-07-30T02:22:27.211Z,11.50
2022-07-30T02:24:58.682Z,11.20
2022-07-30T02:27:34.760Z,11.30
2022-07-30T02:30:08.957Z,11.30
2022-07-30T02:32:43.532Z,11.07
2022-07-30T02:35:18.308Z,10.87
2022-07-30T02:37:49.224Z,12.57
2022-07-30T02:40:20.470Z,13.10
2022-07-30T02:42:53.460Z,11.70
2022-07-30T02:45:27.542Z,12.27
2022-07-30T02:48:02.708Z,12.90
2022-07-30T02:50:31.917Z,12.43
2022-07-30T02:53:03.183Z,11.67
2022-07-30T02:55:35.973Z,12.57
2022-07-30T02:58:08.289Z,12.47
2022-07-30T03:00:37.870Z,12.60
2022-07-30T03:03:08.291Z,11.87
2022-07-30T03:05:40.848Z,12.27
2022-07-30T03:08:10.829Z,13.00
2022-07-30T03:10:41.164Z,13.03
2022-07-30T03:13:13.103Z,12.67
2022-07-30T03:15:48.891Z,12.43
2022-07-30T03:18:20.354Z,12.63
2022-07-30T03:20:55.721Z,11.93
2022-07-30T03:23:25.327Z,13.20
2022-07-30T03:25:58.878Z,12.50
2022-07-30T03:28:32.407Z,10.33
2022-07-30T03:31:02.403Z,11.10
2022-07-30T03:33:38.361Z,10.20
2022-07-30T03:36:09.932Z,10.53
2022-07-30T03:38:40.424Z,9.90
2022-07-30T03:41:11.592Z,10.53
2022-07-30T03:43:43.983Z,11.43
2022-07-30T03:46:14.557Z,11.50
2022-07-30T03:48:47.152Z,12.23
2022-07-30T03:51:17.488Z,13.53
2022-07-30T03:53:47.166Z,12.13
2022-07-30T03:56:35.309Z,12.43
2022-07-30T03:59:10.554Z,12.70
2022-07-30T04:01:41.694Z,12.70
2022-07-30T04:04:43.503Z,12.70
2022-07-30T04:07:12.065Z,12.27
2022-07-30T04:09:40.527Z,13.03
2022-07-30T04:12:25.841Z,13.87
2022-07-30T04:14:57.500Z,13.40
2022-07-30T04:17:33.073Z,13.60
2022-07-30T04:20:17.956Z,13.27
2022-07-30T04:22:47.631Z,14.43
2022-07-30T04:25:22.974Z,13.53
2022-07-30T04:28:02.882Z,14.53
2022-07-30T04:30:35.099Z,16.03
2022-07-30T04:33:04.852Z,16.47
2022-07-30T04:36:00.903Z,16.20
2022-07-30T04:38:34.046Z,17.07
2022-07-30T04:41:02.521Z,17.43
2022-07-30T04:43:38.567Z,19.23
2022-07-30T04:46:08.437Z,21.37
2022-07-30T04:48:37.266Z,20.50
2022-07-30T04:51:19.406Z,20.43
2022-07-30T04:53:50.269Z,21.53
2022-07-30T04:56:23.728Z,21.60
2022-07-30T04:58:53.114Z,22.37
2022-07-30T05:01:35.890Z,21.90
2022-07-30T05:04:11.757Z,23.30
2022-07-30T05:06:41.677Z,23.90
2022-07-30T05:09:12.091Z,23.10
2022-07-30T05:11:40.586Z,23.07
2022-07-30T05:14:09.038Z,22.50
2022-07-30T05:16:39.588Z,23.67
2022-07-30T05:19:08.082Z,21.40
2022-07-30T05:21:38.062Z,21.03
2022-07-30T05:24:07.713Z,22.40
2022-07-30T05:26:40.618Z,20.70
2022-07-30T05:29:19.384Z,20.87
2022-07-30T05:32:02.500Z,18.50
2022-07-30T05:34:31.865Z,17.70
2022-07-30T05:37:01.280Z,18.10
2022-07-30T05:39:29.730Z,17.43
2022-07-30T05:42:24.545Z,16.40
2022-07-30T05:44:57.075Z,16.30
2022-07-30T05:47:27.495Z,14.50
2022-07-30T05:49:59.337Z,15.27
2022-07-30T05:52:29.913Z,13.73
2022-07-30T05:55:05.364Z,12.00
2022-07-30T05:57:52.341Z,10.87
2022-07-30T06:00:20.950Z,9.23
2022-07-30T06:02:57.013Z,7.80
2022-07-30T06:05:25.506Z,7.20
2022-07-30T06:07:58.214Z,6.03
2022-07-30T06:10:28.945Z,6.00
2022-07-30T06:12:57.416Z,5.53
2022-07-30T06:15:27.273Z,5.40
2022-07-30T06:18:02.054Z,5.33
2022-07-30T06:20:44.055Z,5.30
2022-07-30T06:23:12.501Z,4.83
2022-07-30T06:26:13.269Z,5.17
2022-07-30T06:28:42.948Z,4.80
2022-07-30T06:31:31.605Z,4.50
2022-07-30T06:34:01.458Z,4.93
2022-07-30T06:36:35.433Z,4.20
2022-07-30T06:39:07.944Z,4.73
2022-07-30T06:41:59.768Z,4.53
2022-07-30T06:44:31.253Z,5.00
2022-07-30T06:47:08.144Z,4.10
2022-07-30T06:49:40.982Z,4.00
2022-07-30T06:52:15.653Z,3.43
2022-07-30T06:54:49.909Z,3.57
2022-07-30T06:57:42.373Z,3.43
2022-07-30T07:00:22.400Z,3.60
2022-07-30T07:02:51.460Z,2.93
2022-07-30T07:05:29.190Z,2.80
2022-07-30T07:07:59.784Z,3.07
2022-07-30T07:10:34.284Z,3.30
2022-07-30T07:13:21.272Z,2.80
2022-07-30T07:15:49.915Z,3.00
2022-07-30T07:18:22.148Z,3.17
2022-07-30T07:20:59.208Z,3.20
2022-07-30T07:23:41.962Z,3.27
2022-07-30T07:26:22.076Z,3.50
2022-07-30T07:28:50.502Z,3.10
2022-07-30T07:32:02.533Z,3.27
2022-07-30T07:34:07.608Z,3.60
2022-07-30T07:36:37.742Z,3.10
2022-07-30T07:39:09.715Z,3.00
2022-07-30T07:41:48.841Z,2.80
2022-07-30T07:44:21.769Z,3.00
2022-07-30T07:46:50.151Z,3.00
2022-07-30T07:49:18.700Z,3.03
2022-07-30T07:51:52.543Z,3.30
2022-07-30T07:54:23.285Z,2.87
2022-07-30T07:56:56.083Z,2.90
2022-07-30T07:59:40.672Z,3.07
2022-07-30T08:02:26.973Z,2.60
2022-07-30T08:05:10.603Z,2.90
2022-07-30T08:07:53.866Z,2.70
2022-07-30T08:10:40.936Z,2.90
2022-07-30T08:13:52.247Z,2.83
2022-07-30T08:16:34.688Z,3.00
2022-07-30T08:19:12.145Z,2.67
2022-07-30T08:21:43.561Z,2.80
2022-07-30T08:24:19.233Z,2.80
2022-07-30T08:26:48.129Z,2.40
2022-07-30T08:29:17.329Z,2.63
2022-07-30T08:31:46.712Z,2.80
2022-07-30T08:34:15.697Z,2.80
2022-07-30T08:36:45.310Z,2.90
2022-07-30T08:39:13.687Z,2.33
2022-07-30T08:41:44.425Z,2.63
2022-07-30T08:44:13.849Z,2.73
2022-07-30T08:46:46.942Z,2.00
2022-07-30T08:49:49.096Z,2.33
2022-07-30T08:52:20.898Z,2.30
2022-07-30T08:54:58.952Z,2.93
2022-07-30T08:57:31.032Z,2.37
2022-07-30T09:00:01.753Z,2.40
2022-07-30T09:02:33.315Z,2.23
2022-07-30T09:05:06.078Z,2.40
2022-07-30T09:07:34.983Z,2.10
2022-07-30T09:10:05.817Z,1.80
2022-07-30T09:12:40.320Z,2.17
2022-07-30T09:15:12.994Z,1.80
2022-07-30T09:17:57.076Z,2.40
2022-07-30T09:20:30.570Z,2.47
2022-07-30T09:23:01.857Z,2.17
2022-07-30T09:26:02.181Z,2.40
2022-07-30T09:28:43.934Z,2.60
2022-07-30T09:31:16.198Z,2.37
2022-07-30T09:34:29.532Z,2.10
2022-07-30T09:37:19.716Z,2.30
2022-07-30T09:40:17.307Z,2.23
2022-07-30T09:43:18.698Z,2.60
2022-07-30T09:45:57.359Z,2.07
2022-07-30T09:48:28.438Z,2.23
2022-07-30T09:50:57.822Z,2.40
2022-07-30T09:53:26.514Z,2.20
2022-07-30T09:55:56.413Z,2.47
2022-07-30T09:58:40.392Z,2.53
2022-07-30T10:01:16.089Z,1.93
2022-07-30T10:04:03.199Z,2.20
2022-07-30T10:06:51.478Z,2.30
2022-07-30T10:09:42.657Z,2.20
2022-07-30T10:12:15.816Z,2.80
2022-07-30T10:14:50.555Z,2.30
2022-07-30T10:17:23.131Z,2.23
2022-07-30T10:20:13.226Z,2.30
2022-07-30T10:22:50.579Z,2.40
2022-07-30T10:25:49.560Z,2.77
2022-07-30T10:28:58.755Z,2.97
2022-07-30T10:31:48.489Z,2.47
2022-07-30T10:34:23.782Z,2.23
2022-07-30T10:37:02.472Z,2.47
2022-07-30T10:39:39.915Z,2.53
2022-07-30T10:42:34.009Z,2.30
2022-07-30T10:45:19.525Z,2.60
2022-07-30T10:47:49.799Z,3.00
2022-07-30T10:50:26.890Z,3.03
2022-07-30T10:52:57.546Z,2.67
2022-07-30T10:55:36.525Z,3.43
2022-07-30T10:58:10.712Z,3.63
2022-07-30T11:01:00.352Z,3.90
2022-07-30T11:03:40.575Z,3.83
2022-07-30T11:06:29.306Z,3.20
2022-07-30T11:08:58.319Z,4.70
2022-07-30T11:12:05.463Z,3.50
2022-07-30T11:15:06.850Z,3.30
2022-07-30T11:18:12.540Z,4.60
2022-07-30T11:20:43.087Z,3.50
2022-07-30T11:23:39.520Z,5.50
2022-07-30T11:26:14.207Z,4.20
2022-07-30T11:28:46.199Z,4.50
2022-07-30T11:31:54.798Z,5.00
2022-07-30T11:34:30.934Z,3.90
2022-07-30T11:37:22.492Z,4.70
2022-07-30T11:40:14.666Z,5.17
2022-07-30T11:42:44.672Z,4.97
2022-07-30T11:45:33.487Z,4.40
2022-07-30T11:48:02.175Z,5.13
2022-07-30T11:50:34.984Z,5.50
2022-07-30T11:53:06.686Z,4.20
2022-07-30T11:55:39.362Z,5.07
2022-07-30T11:58:10.740Z,4.53
2022-07-30T12:00:42.319Z,5.37
2022-07-30T12:03:13.511Z,6.80
2022-07-30T12:05:43.040Z,4.90
2022-07-30T12:08:35.929Z,5.30
2022-07-30T12:11:03.070Z,5.40
2022-07-30T12:13:44.905Z,5.33
2022-07-30T12:16:17.492Z,5.00
2022-07-30T12:18:47.735Z,5.07
2022-07-30T12:21:17.077Z,5.03
2022-07-30T12:23:56.464Z,4.73
2022-07-30T12:26:29.427Z,4.90
2022-07-30T12:28:59.434Z,4.40
2022-07-30T12:31:28.671Z,5.70
2022-07-30T12:33:58.346Z,5.60
2022-07-30T12:36:31.826Z,5.47
2022-07-30T12:39:01.105Z,3.83
2022-07-30T12:41:46.759Z,5.27
2022-07-30T12:44:37.081Z,5.80
2022-07-30T12:47:07.673Z,4.10
2022-07-30T12:49:39.260Z,4.13
2022-07-30T12:52:30.857Z,4.57
2022-07-30T12:55:06.117Z,3.77
2022-07-30T12:57:56.568Z,3.90
2022-07-30T13:00:27.312Z,4.30
2022-07-30T13:02:56.646Z,3.10
2022-07-30T13:05:47.208Z,3.70
2022-07-30T13:08:16.121Z,3.63
2022-07-30T13:10:59.783Z,3.30
2022-07-30T13:13:31.001Z,2.73
2022-07-30T13:16:01.852Z,3.53
2022-07-30T13:18:31.915Z,3.47
2022-07-30T13:21:01.845Z,2.93
2022-07-30T13:23:30.941Z,2.57
2022-07-30T13:25:59.295Z,3.43
2022-07-30T13:28:29.207Z,3.43
2022-07-30T13:30:58.762Z,3.20
2022-07-30T13:33:27.327Z,4.10
2022-07-30T13:35:55.784Z,3.53
2022-07-30T13:38:24.103Z,3.90
2022-07-30T13:40:52.986Z,2.70
2022-07-30T13:43:22.326Z,2.97
2022-07-30T13:45:53.292Z,3.50
2022-07-30T13:48:22.316Z,3.10
2022-07-30T13:50:51.308Z,3.00
2022-07-30T13:53:19.874Z,2.80
2022-07-30T13:55:48.476Z,2.57
2022-07-30T13:58:16.871Z,2.50
2022-07-30T14:00:47.779Z,2.63
2022-07-30T14:03:17.563Z,3.20
2022-07-30T14:05:45.896Z,2.83
2022-07-30T14:08:14.246Z,2.67
2022-07-30T14:10:42.803Z,2.80
2022-07-30T14:13:16.052Z,2.43
2022-07-30T14:15:49.708Z,2.70
2022-07-30T14:18:19.632Z,2.30
2022-07-30T14:20:49.483Z,2.43
2022-07-30T14:23:18.351Z,2.90
2022-07-30T14:25:47.012Z,2.27
2022-07-30T14:28:15.943Z,2.40
2022-07-30T14:30:44.702Z,2.50
2022-07-30T14:33:13.209Z,2.60
2022-07-30T14:35:45.195Z,2.33
2022-07-30T14:38:13.776Z,2.60
2022-07-30T14:40:42.194Z,2.67
2022-07-30T14:43:10.527Z,3.13
2022-07-30T14:45:39.283Z,2.50
2022-07-30T14:48:08.082Z,2.67
2022-07-30T14:50:46.720Z,3.40
2022-07-30T14:53:26.150Z,3.20
2022-07-30T14:55:54.614Z,2.80
2022-07-30T14:58:22.933Z,2.80
2022-07-30T15:00:51.592Z,2.90
2022-07-30T15:03:20.008Z,2.77
2022-07-30T15:05:52.421Z,2.60
2022-07-30T15:08:21.829Z,2.40
2022-07-30T15:10:51.702Z,3.17
2022-07-30T15:13:20.861Z,2.90
2022-07-30T15:15:49.566Z,2.63
2022-07-30T15:18:17.953Z,2.90
2022-07-30T15:20:46.323Z,2.43
2022-07-30T15:23:15.228Z,3.00
2022-07-30T15:25:45.377Z,2.80
2022-07-30T15:28:18.253Z,2.50
2022-07-30T15:30:46.749Z,3.10
2022-07-30T15:33:15.455Z,3.30
2022-07-30T15:35:44.013Z,3.07
2022-07-30T15:38:12.962Z,3.50
2022-07-30T15:40:42.953Z,2.90
2022-07-30T15:43:11.578Z,3.03
2022-07-30T15:45:55.605Z,3.03
2022-07-30T15:48:27.338Z,2.50
2022-07-30T15:51:01.991Z,2.77
2022-07-30T15:53:31.154Z,3.20
2022-07-30T15:56:00.311Z,2.90
2022-07-30T15:58:29.023Z,2.90
2022-07-30T16:00:58.765Z,3.07
2022-07-30T16:03:27.211Z,3.10
2022-07-30T16:05:55.603Z,3.40
2022-07-30T16:08:24.118Z,8.10
2022-07-30T16:10:52.951Z,3.13
2022-07-30T16:13:21.552Z,3.10
2022-07-30T16:15:50.016Z,4.43
2022-07-30T16:18:19.759Z,2.70
2022-07-30T16:20:48.084Z,3.00
2022-07-30T16:23:21.136Z,3.10
2022-07-30T16:25:50.178Z,2.90
2022-07-30T16:28:18.574Z,3.33
2022-07-30T16:30:51.486Z,3.10
2022-07-30T16:33:22.018Z,2.90
2022-07-30T16:35:51.254Z,3.40
2022-07-30T16:38:20.379Z,3.30
2022-07-30T16:40:48.862Z,2.70
2022-07-30T16:43:19.691Z,3.10
2022-07-30T16:45:49.224Z,3.17
2022-07-30T16:48:17.961Z,2.80
2022-07-30T16:50:47.833Z,3.20
2022-07-30T16:53:16.299Z,3.47
2022-07-30T16:55:45.638Z,3.53
2022-07-30T16:58:14.334Z,3.27
2022-07-30T17:00:43.197Z,3.00
2022-07-30T17:03:11.968Z,2.90
2022-07-30T17:05:49.967Z,3.30
2022-07-30T17:08:18.592Z,2.93
2022-07-30T17:10:53.571Z,2.70
2022-07-30T17:13:22.334Z,3.00
2022-07-30T17:15:51.017Z,3.03
2022-07-30T17:18:19.481Z,3.30
2022-07-30T17:20:49.329Z,3.20
2022-07-30T17:23:17.719Z,3.30
2022-07-30T17:25:46.325Z,3.93
2022-07-30T17:28:14.793Z,3.37
2022-07-30T17:30:43.392Z,3.53
2022-07-30T17:33:11.850Z,3.10
2022-07-30T17:35:40.258Z,3.00
2022-07-30T17:38:10.001Z,3.07
2022-07-30T17:40:38.512Z,3.37
2022-07-30T17:43:07.726Z,3.30
2022-07-30T17:45:37.659Z,3.00
2022-07-30T17:48:07.788Z,3.30
2022-07-30T17:50:36.744Z,2.90
2022-07-30T17:53:07.247Z,3.27
2022-07-30T17:55:37.038Z,3.40
2022-07-30T17:58:06.208Z,3.07
2022-07-30T18:00:35.477Z,2.90
2022-07-30T18:03:04.523Z,3.63
2022-07-30T18:05:33.110Z,3.17
2022-07-30T18:08:01.570Z,3.30
2022-07-30T18:10:30.055Z,3.10
2022-07-30T18:12:59.797Z,3.30
2022-07-30T18:15:48.681Z,3.60
2022-07-30T18:18:17.340Z,3.67
2022-07-30T18:20:48.197Z,3.20
2022-07-30T18:23:19.169Z,3.67
2022-07-30T18:25:51.945Z,3.40
2022-07-30T18:28:23.616Z,2.90
2022-07-30T18:30:53.081Z,2.90
2022-07-30T18:33:21.455Z,3.40
2022-07-30T18:35:50.083Z,3.80
2022-07-30T18:38:19.234Z,3.10
2022-07-30T18:40:57.609Z,3.60
2022-07-30T18:43:28.536Z,3.20
2022-07-30T18:45:58.364Z,4.07
2022-07-30T18:48:27.332Z,3.80
2022-07-30T18:50:55.805Z,3.60
2022-07-30T18:53:24.584Z,3.87
2022-07-30T18:55:52.963Z,4.50
2022-07-30T18:58:21.340Z,3.73
2022-07-30T19:00:51.502Z,2.93
2022-07-30T19:03:22.975Z,3.90
2022-07-30T19:05:51.672Z,3.40
2022-07-30T19:08:20.076Z,3.03
2022-07-30T19:10:48.607Z,3.00
2022-07-30T19:13:17.050Z,3.70
2022-07-30T19:15:45.451Z,3.40
2022-07-30T19:18:15.474Z,3.70
2022-07-30T19:20:44.899Z,4.10
2022-07-30T19:23:13.679Z,3.20
2022-07-30T19:25:42.109Z,4.20
2022-07-30T19:28:11.267Z,3.23
2022-07-30T19:30:39.842Z,3.60
2022-07-30T19:33:15.319Z,3.43
2022-07-30T19:35:47.199Z,3.40
2022-07-30T19:38:21.839Z,3.10
2022-07-30T19:40:52.760Z,3.10
2022-07-30T19:43:23.776Z,3.23
2022-07-30T19:45:52.767Z,3.47
2022-07-30T19:48:29.595Z,3.60
2022-07-30T19:51:01.957Z,3.13
2022-07-30T19:53:34.071Z,3.10
2022-07-30T19:56:10.584Z,3.43
2022-07-30T19:58:40.237Z,2.90
2022-07-30T20:01:12.322Z,3.67
2022-07-30T20:03:40.983Z,3.80
2022-07-30T20:06:14.816Z,3.90
2022-07-30T20:08:44.920Z,3.97
2022-07-30T20:11:21.369Z,4.20
2022-07-30T20:14:03.045Z,3.70
2022-07-30T20:16:31.662Z,3.93
2022-07-30T20:19:00.313Z,4.30
2022-07-30T20:21:57.087Z,3.90
2022-07-30T20:24:22.248Z,4.43
2022-07-30T20:26:50.780Z,4.00
2022-07-30T20:29:20.762Z,4.50
2022-07-30T20:32:00.437Z,5.60
2022-07-30T20:34:30.960Z,5.20
2022-07-30T20:37:13.804Z,5.40
2022-07-30T20:39:50.563Z,5.23
2022-07-30T20:42:19.317Z,4.83
2022-07-30T20:44:51.540Z,4.93
2022-07-30T20:50:14.480Z,5.07
2022-07-30T20:52:46.795Z,5.70
2022-07-30T20:55:17.647Z,5.80
2022-07-30T20:57:56.907Z,6.50
2022-07-30T21:00:31.595Z,5.70
2022-07-30T21:03:03.204Z,6.33
2022-07-30T21:05:32.213Z,5.60
2022-07-30T21:08:02.015Z,5.83
2022-07-30T21:10:30.335Z,4.80
2022-07-30T21:13:03.796Z,5.60
2022-07-30T21:15:37.011Z,5.60
2022-07-30T21:18:14.685Z,5.73
2022-07-30T21:20:47.424Z,6.17
2022-07-30T21:23:22.179Z,6.17
2022-07-30T21:26:00.558Z,6.77
2022-07-30T21:28:35.242Z,8.30
2022-07-30T21:31:07.082Z,9.57
2022-07-30T21:33:36.752Z,7.77
2022-07-30T21:36:10.929Z,6.63
2022-07-30T21:38:42.023Z,6.97
2022-07-30T21:41:13.857Z,6.40
2022-07-30T21:43:44.469Z,6.03
2022-07-30T21:46:13.407Z,6.27
2022-07-30T21:48:43.242Z,5.60
2022-07-30T21:51:12.490Z,5.70
2022-07-30T21:53:45.304Z,5.33
2022-07-30T21:56:16.258Z,4.90
2022-07-30T21:58:45.649Z,4.70
2022-07-30T22:01:21.781Z,4.50
2022-07-30T22:04:01.208Z,4.00
2022-07-30T22:06:33.798Z,4.70
2022-07-30T22:09:18.101Z,4.73
2022-07-30T22:11:47.542Z,3.73
2022-07-30T22:14:15.887Z,3.20
2022-07-30T22:16:46.065Z,3.43
2022-07-30T22:19:15.630Z,3.07
2022-07-30T22:21:46.678Z,3.03
2022-07-30T22:24:28.680Z,3.27
2022-07-30T22:27:01.575Z,2.73
2022-07-30T22:29:38.756Z,3.30
2022-07-30T22:32:08.569Z,3.13
2022-07-30T22:34:37.025Z,3.07
2022-07-30T22:37:12.399Z,3.27
2022-07-30T22:39:52.037Z,3.40
2022-07-30T22:42:24.930Z,2.97
2022-07-30T22:44:55.783Z,3.50
2022-07-30T22:47:53.821Z,3.07
2022-07-30T22:50:15.233Z,3.20
2022-07-30T22:52:56.206Z,3.40
2022-07-30T22:55:38.248Z,3.27
2022-07-30T22:58:06.742Z,3.33
2022-07-30T23:00:35.426Z,3.10
2022-07-30T23:03:04.202Z,3.90
2022-07-30T23:05:36.634Z,3.37
2022-07-30T23:08:08.517Z,3.60
2022-07-30T23:10:38.410Z,5.33
2022-07-30T23:12:19.354Z,5.43
2022-07-30T23:15:41.130Z,5.90
2022-07-30T23:18:09.481Z,4.47
2022-07-30T23:20:37.798Z,4.90
2022-07-30T23:23:06.177Z,6.60
2022-07-30T23:25:38.718Z,5.83
2022-07-30T23:28:09.014Z,5.77
2022-07-30T23:30:37.336Z,5.87
2022-07-30T23:33:05.680Z,6.33
2022-07-30T23:35:34.911Z,4.43
2022-07-30T23:38:03.252Z,5.40
2022-07-30T23:40:31.703Z,5.40
2022-07-30T23:42:59.999Z,4.47
2022-07-30T23:45:30.069Z,4.67
2022-07-30T23:48:02.399Z,5.33
2022-07-30T23:50:32.493Z,5.47
2022-07-30T23:53:01.566Z,6.27
2022-07-30T23:55:31.053Z,5.50
2022-07-30T23:58:00.167Z,5.17
